createdAt,value
2023-02-28T00:01:32.692Z,0.50
2023-02-28T00:04:01.269Z,0.50
2023-02-28T00:06:29.848Z,0.40
2023-02-28T00:08:59.705Z,0.20
2023-02-28T00:11:28.566Z,-0.10
2023-02-28T00:13:57.686Z,-0.20
2023-02-28T00:16:26.232Z,0.00
2023-02-28T00:18:54.683Z,0.10
2023-02-28T00:21:23.761Z,0.20
2023-02-28T00:23:52.247Z,0.40
2023-02-28T00:26:22.190Z,0.30
2023-02-28T00:28:50.708Z,0.20
2023-02-28T00:31:19.221Z,0.20
2023-02-28T00:33:47.628Z,0.50
2023-02-28T00:36:16.066Z,0.60
2023-02-28T00:38:44.551Z,0.70
2023-02-28T00:41:13.408Z,0.90
2023-02-28T00:43:43.657Z,1.00
2023-02-28T00:46:12.215Z,1.00
2023-02-28T00:48:40.618Z,1.20
2023-02-28T00:51:09.016Z,1.20
2023-02-28T00:53:37.535Z,1.40
2023-02-28T00:56:06.337Z,1.30
2023-02-28T00:58:35.063Z,1.10
2023-02-28T01:01:05.056Z,1.00
2023-02-28T01:03:33.504Z,0.80
2023-02-28T01:06:02.644Z,0.80
2023-02-28T01:08:31.139Z,0.90
2023-02-28T01:10:59.603Z,0.90
2023-02-28T01:13:27.949Z,0.90
2023-02-28T01:15:58.701Z,0.90
2023-02-28T01:18:28.456Z,0.90
2023-02-28T01:20:57.160Z,1.00
2023-02-28T01:23:26.550Z,1.00
2023-02-28T01:25:55.203Z,1.00
2023-02-28T01:28:23.649Z,0.90
2023-02-28T01:30:53.060Z,0.80
2023-02-28T01:33:21.704Z,0.60
2023-02-28T01:35:51.684Z,0.40
2023-02-28T01:38:22.885Z,0.30
2023-02-28T01:40:52.330Z,0.30
2023-02-28T01:43:25.943Z,0.40
2023-02-28T01:45:56.113Z,0.50
2023-02-28T01:48:28.454Z,0.50
2023-02-28T01:51:03.195Z,0.40
2023-02-28T01:53:35.902Z,0.20
2023-02-28T01:56:08.955Z,0.00
2023-02-28T01:58:38.574Z,-0.10
2023-02-28T02:01:07.355Z,-0.10
2023-02-28T02:03:38.295Z,-0.10
2023-02-28T02:06:08.717Z,-0.10
2023-02-28T02:08:39.233Z,-0.20
2023-02-28T02:11:12.565Z,-0.20
2023-02-28T02:13:57.460Z,-0.20
2023-02-28T02:16:43.208Z,0.00
2023-02-28T02:19:37.271Z,0.30
2023-02-28T02:22:23.954Z,0.50
2023-02-28T02:25:07.708Z,0.50
2023-02-28T02:27:59.845Z,0.40
2023-02-28T02:30:58.881Z,0.30
2023-02-28T02:33:59.704Z,0.40
2023-02-28T02:36:32.784Z,0.50
2023-02-28T02:39:08.321Z,0.70
2023-02-28T02:41:41.546Z,0.80
2023-02-28T02:44:16.485Z,0.70
2023-02-28T02:46:47.077Z,0.70
2023-02-28T02:49:22.611Z,0.80
2023-02-28T02:51:53.868Z,0.80
2023-02-28T02:54:25.383Z,0.80
2023-02-28T02:56:54.709Z,0.90
2023-02-28T02:59:24.990Z,1.00
2023-02-28T03:01:57.461Z,1.00
2023-02-28T03:04:30.546Z,1.10
2023-02-28T03:07:00.569Z,1.10
2023-02-28T03:09:29.926Z,1.20
2023-02-28T03:11:59.183Z,1.30
2023-02-28T03:14:47.683Z,1.50
2023-02-28T03:17:33.162Z,1.60
2023-02-28T03:20:10.107Z,1.70
2023-02-28T03:22:53.520Z,1.70
2023-02-28T03:25:29.767Z,1.80
2023-02-28T03:28:06.334Z,1.70
2023-02-28T03:30:43.267Z,1.70
2023-02-28T03:33:15.820Z,1.80
2023-02-28T03:35:48.321Z,1.80
2023-02-28T03:38:24.308Z,1.90
2023-02-28T03:41:01.165Z,2.00
2023-02-28T03:43:34.259Z,2.00
2023-02-28T03:46:09.556Z,2.10
2023-02-28T03:48:43.081Z,2.10
2023-02-28T03:51:16.695Z,2.20
2023-02-28T03:53:49.810Z,2.30
2023-02-28T03:56:21.517Z,2.20
2023-02-28T03:58:56.596Z,2.20
2023-02-28T04:01:32.733Z,2.20
2023-02-28T04:04:01.601Z,2.20
2023-02-28T04:06:32.601Z,2.20
2023-02-28T04:09:02.765Z,2.20
2023-02-28T04:11:38.501Z,2.30
2023-02-28T04:14:08.440Z,2.40
2023-02-28T04:16:39.324Z,2.40
2023-02-28T04:19:08.784Z,2.40
2023-02-28T04:21:54.053Z,2.50
2023-02-28T04:24:25.548Z,2.50
2023-02-28T04:26:56.412Z,2.50
2023-02-28T04:29:27.190Z,2.60
2023-02-28T04:31:57.297Z,2.70
2023-02-28T04:34:26.501Z,2.70
2023-02-28T04:37:11.554Z,2.70
2023-02-28T04:39:43.267Z,2.70
2023-02-28T04:42:11.991Z,2.70
2023-02-28T04:44:40.309Z,2.80
2023-02-28T04:47:08.852Z,2.80
2023-02-28T04:49:37.376Z,2.70
2023-02-28T04:52:06.243Z,2.70
2023-02-28T04:54:34.651Z,2.80
2023-02-28T04:57:05.466Z,2.80
2023-02-28T04:59:34.025Z,2.90
2023-02-28T05:02:08.194Z,2.90
2023-02-28T05:04:37.411Z,3.00
2023-02-28T05:07:06.273Z,3.00
2023-02-28T05:09:35.668Z,3.00
2023-02-28T05:12:06.455Z,3.00
2023-02-28T05:14:34.854Z,3.00
2023-02-28T05:17:03.463Z,3.10
2023-02-28T05:19:31.831Z,3.10
2023-02-28T05:22:00.413Z,3.10
2023-02-28T05:24:29.589Z,3.20
2023-02-28T05:26:57.976Z,3.20
2023-02-28T05:29:27.804Z,3.20
2023-02-28T05:31:56.234Z,3.20
2023-02-28T05:34:24.725Z,3.20
2023-02-28T05:36:53.074Z,3.20
2023-02-28T05:39:21.496Z,3.20
2023-02-28T05:41:50.984Z,3.20
2023-02-28T05:44:19.343Z,3.20
2023-02-28T05:46:49.114Z,3.20
2023-02-28T05:49:18.615Z,3.20
2023-02-28T05:51:46.996Z,3.20
2023-02-28T05:54:15.567Z,3.10
2023-02-28T05:56:45.196Z,3.10
2023-02-28T05:59:13.744Z,3.10
2023-02-28T06:01:49.954Z,3.10
2023-02-28T06:04:31.205Z,3.10
2023-02-28T06:07:00.738Z,3.10
2023-02-28T06:09:29.101Z,3.00
2023-02-28T06:11:59.800Z,3.00
2023-02-28T06:14:28.382Z,3.00
2023-02-28T06:16:58.951Z,3.00
2023-02-28T06:19:29.847Z,3.00
2023-02-28T06:21:59.419Z,3.00
2023-02-28T06:24:29.935Z,3.00
2023-02-28T06:26:59.886Z,3.00
2023-02-28T06:29:28.288Z,2.90
2023-02-28T06:31:56.663Z,2.90
2023-02-28T06:34:25.059Z,3.00
2023-02-28T06:36:54.892Z,3.00
2023-02-28T06:39:23.297Z,3.10
2023-02-28T06:41:55.785Z,3.10
2023-02-28T06:44:25.524Z,3.00
2023-02-28T06:46:53.870Z,3.10
2023-02-28T06:49:23.349Z,3.10
2023-02-28T06:51:51.713Z,3.00
2023-02-28T06:54:21.426Z,3.00
2023-02-28T06:56:49.959Z,2.90
2023-02-28T06:59:18.611Z,2.80
2023-02-28T07:01:47.303Z,2.80
2023-02-28T07:04:15.710Z,2.70
2023-02-28T07:06:44.078Z,2.60
2023-02-28T07:09:12.883Z,2.60
2023-02-28T07:11:43.967Z,2.50
2023-02-28T07:14:12.355Z,2.40
2023-02-28T07:16:40.781Z,2.40
2023-02-28T07:19:09.293Z,2.40
2023-02-28T07:21:37.655Z,2.40
2023-02-28T07:24:06.549Z,2.40
2023-02-28T07:26:36.209Z,2.40
2023-02-28T07:29:06.710Z,2.40
2023-02-28T07:31:36.096Z,2.40
2023-02-28T07:34:04.729Z,2.40
2023-02-28T07:36:33.545Z,2.40
2023-02-28T07:39:02.338Z,2.40
2023-02-28T07:41:31.214Z,2.40
2023-02-28T07:44:00.733Z,2.50
2023-02-28T07:46:36.653Z,2.50
2023-02-28T07:49:05.766Z,2.50
2023-02-28T07:51:34.735Z,2.60
2023-02-28T07:54:03.073Z,2.60
2023-02-28T07:56:31.749Z,2.60
2023-02-28T07:59:00.286Z,2.60
2023-02-28T08:01:29.783Z,2.60
2023-02-28T08:04:00.163Z,2.70
2023-02-28T08:06:28.510Z,2.70
2023-02-28T08:08:59.012Z,2.70
2023-02-28T08:11:27.790Z,2.80
2023-02-28T08:13:57.467Z,2.80
2023-02-28T08:16:26.270Z,2.90
2023-02-28T08:18:55.329Z,3.00
2023-02-28T08:21:25.099Z,3.00
2023-02-28T08:23:54.170Z,3.10
2023-02-28T08:26:23.066Z,3.20
2023-02-28T08:28:51.815Z,3.30
2023-02-28T08:31:20.876Z,3.30
2023-02-28T08:33:52.107Z,3.40
2023-02-28T08:36:21.906Z,3.40
2023-02-28T08:38:51.768Z,3.50
2023-02-28T08:41:20.500Z,3.40
2023-02-28T08:43:48.932Z,3.50
2023-02-28T08:46:17.411Z,3.50
2023-02-28T08:48:46.269Z,3.50
2023-02-28T08:51:17.304Z,3.50
2023-02-28T08:53:45.769Z,3.50
2023-02-28T08:56:17.686Z,3.50
2023-02-28T08:58:47.441Z,3.50
2023-02-28T09:01:17.778Z,3.60
2023-02-28T09:03:47.858Z,3.60
2023-02-28T09:06:17.857Z,3.70
2023-02-28T09:08:47.337Z,3.80
2023-02-28T09:11:17.563Z,3.90
2023-02-28T09:13:45.990Z,4.00
2023-02-28T09:16:17.200Z,4.00
2023-02-28T09:18:46.578Z,4.10
2023-02-28T09:21:17.422Z,4.00
2023-02-28T09:23:47.122Z,4.10
2023-02-28T09:26:19.080Z,4.10
2023-02-28T09:28:48.041Z,4.00
2023-02-28T09:31:21.958Z,4.20
2023-02-28T09:33:52.476Z,4.20
2023-02-28T09:36:26.913Z,4.20
2023-02-28T09:39:03.555Z,4.30
2023-02-28T09:41:41.129Z,4.30
2023-02-28T09:44:15.265Z,4.30
2023-02-28T09:46:48.204Z,4.20
2023-02-28T09:49:20.031Z,4.10
2023-02-28T09:51:59.766Z,4.30
2023-02-28T09:54:32.120Z,4.40
2023-02-28T09:57:09.459Z,4.50
2023-02-28T09:59:59.759Z,4.50
2023-02-28T10:02:59.244Z,4.50
2023-02-28T10:05:31.329Z,4.40
2023-02-28T10:08:09.801Z,4.30
2023-02-28T10:10:42.275Z,4.40
2023-02-28T10:13:25.126Z,4.30
2023-02-28T10:15:57.214Z,4.20
2023-02-28T10:18:29.566Z,4.20
2023-02-28T10:20:58.763Z,4.20
2023-02-28T10:23:30.494Z,4.30
2023-02-28T10:26:03.421Z,4.30
2023-02-28T10:28:34.163Z,4.30
2023-02-28T10:31:04.115Z,4.40
2023-02-28T10:33:35.249Z,4.40
2023-02-28T10:36:07.872Z,4.60
2023-02-28T10:38:38.572Z,4.80
2023-02-28T10:41:09.039Z,4.80
2023-02-28T10:43:40.498Z,4.80
2023-02-28T10:48:48.997Z,5.00
2023-02-28T10:51:20.198Z,5.00
2023-02-28T10:54:01.187Z,5.10
2023-02-28T10:56:31.844Z,5.30
2023-02-28T10:59:03.958Z,5.40
2023-02-28T11:01:41.253Z,5.30
2023-02-28T11:04:40.094Z,5.20
2023-02-28T11:07:21.552Z,5.30
2023-02-28T11:09:53.604Z,5.30
2023-02-28T11:12:25.560Z,5.50
2023-02-28T11:15:00.345Z,5.80
2023-02-28T11:17:31.463Z,6.10
2023-02-28T11:20:04.023Z,6.50
2023-02-28T11:22:36.994Z,6.80
2023-02-28T11:25:11.043Z,7.20
2023-02-28T11:27:50.465Z,7.00
2023-02-28T11:30:36.173Z,7.00
2023-02-28T11:33:24.063Z,7.30
2023-02-28T11:35:54.834Z,7.30
2023-02-28T11:38:23.644Z,7.30
2023-02-28T11:41:07.116Z,7.40
2023-02-28T11:43:52.363Z,7.40
2023-02-28T11:46:34.586Z,7.50
2023-02-28T11:49:16.569Z,7.50
2023-02-28T11:51:50.630Z,7.10
2023-02-28T11:54:44.448Z,7.40
2023-02-28T11:57:29.947Z,7.20
2023-02-28T12:00:05.455Z,7.30
2023-02-28T12:02:48.041Z,7.50
2023-02-28T12:05:27.455Z,7.60
2023-02-28T12:08:07.505Z,7.10
2023-02-28T12:10:43.910Z,6.60
2023-02-28T12:13:22.027Z,6.70
2023-02-28T12:16:09.604Z,7.10
2023-02-28T12:18:59.220Z,7.30
2023-02-28T12:21:39.501Z,7.60
2023-02-28T12:24:31.359Z,7.40
2023-02-28T12:27:03.684Z,7.30
2023-02-28T12:29:35.992Z,7.50
2023-02-28T12:32:11.723Z,7.60
2023-02-28T12:34:49.552Z,7.80
2023-02-28T12:37:23.884Z,7.60
2023-02-28T12:39:57.151Z,7.60
2023-02-28T12:42:30.894Z,7.60
2023-02-28T12:45:03.327Z,7.70
2023-02-28T12:47:31.802Z,7.90
2023-02-28T12:50:06.001Z,8.30
2023-02-28T12:52:40.767Z,8.30
2023-02-28T12:55:16.480Z,7.90
2023-02-28T12:57:52.379Z,8.10
2023-02-28T13:00:24.405Z,8.10
2023-02-28T13:03:34.585Z,8.00
2023-02-28T13:06:22.266Z,8.00
2023-02-28T13:09:11.477Z,8.20
2023-02-28T13:11:45.907Z,8.10
2023-02-28T13:14:28.079Z,8.10
2023-02-28T13:17:00.662Z,8.10
2023-02-28T13:19:33.090Z,8.00
2023-02-28T13:22:04.517Z,8.30
2023-02-28T13:24:45.799Z,8.40
2023-02-28T13:27:35.055Z,8.20
2023-02-28T13:30:24.597Z,8.20
2023-02-28T13:33:24.727Z,8.20
2023-02-28T13:36:23.902Z,8.00
2023-02-28T13:39:01.127Z,7.70
2023-02-28T13:41:57.657Z,7.70
2023-02-28T13:44:27.793Z,7.80
2023-02-28T13:47:26.834Z,7.90
2023-02-28T13:49:55.667Z,8.00
2023-02-28T13:52:26.448Z,7.90
2023-02-28T13:55:06.063Z,8.10
2023-02-28T13:57:46.977Z,8.00
2023-02-28T14:00:28.812Z,8.00
2023-02-28T14:03:13.171Z,8.00
2023-02-28T14:05:42.168Z,8.00
2023-02-28T14:08:18.065Z,8.00
2023-02-28T14:10:51.237Z,8.00
2023-02-28T14:13:48.015Z,7.90
2023-02-28T14:16:19.021Z,8.00
2023-02-28T14:18:54.654Z,8.00
2023-02-28T14:21:26.849Z,8.20
2023-02-28T14:24:27.863Z,8.20
2023-02-28T14:27:22.519Z,8.00
2023-02-28T14:30:28.629Z,7.90
2023-02-28T14:33:07.818Z,8.00
2023-02-28T14:35:52.235Z,7.80
2023-02-28T14:38:25.902Z,7.90
2023-02-28T14:40:57.607Z,8.00
2023-02-28T14:43:29.768Z,7.90
2023-02-28T14:46:01.254Z,7.90
2023-02-28T14:48:30.266Z,8.00
2023-02-28T14:51:01.478Z,8.20
2023-02-28T14:53:32.470Z,8.20
2023-02-28T14:56:02.374Z,8.10
2023-02-28T14:58:34.068Z,8.10
2023-02-28T15:01:05.602Z,7.80
2023-02-28T15:03:36.648Z,7.60
2023-02-28T15:06:08.383Z,7.50
2023-02-28T15:08:38.902Z,7.70
2023-02-28T15:11:10.769Z,7.70
2023-02-28T15:13:46.107Z,7.60
2023-02-28T15:16:18.739Z,7.40
2023-02-28T15:18:50.707Z,7.20
2023-02-28T15:21:21.897Z,7.00
2023-02-28T15:23:54.493Z,6.90
2023-02-28T15:26:29.510Z,6.90
2023-02-28T15:29:02.399Z,6.80
2023-02-28T15:31:46.798Z,6.80
2023-02-28T15:34:26.516Z,6.80
2023-02-28T15:36:57.273Z,6.60
2023-02-28T15:39:29.352Z,6.30
2023-02-28T15:42:15.078Z,6.10
2023-02-28T15:44:44.752Z,6.00
2023-02-28T15:47:21.541Z,5.90
2023-02-28T15:49:53.624Z,5.90
2023-02-28T15:52:26.538Z,5.80
2023-02-28T15:54:55.109Z,5.80
2023-02-28T15:57:26.001Z,5.70
2023-02-28T15:59:59.672Z,5.60
2023-02-28T16:02:37.290Z,5.60
2023-02-28T16:05:28.911Z,5.50
2023-02-28T16:07:58.705Z,5.50
2023-02-28T16:12:58.849Z,5.50
2023-02-28T16:15:30.867Z,5.50
2023-02-28T16:17:59.883Z,5.50
2023-02-28T16:20:30.479Z,5.50
2023-02-28T16:23:02.334Z,5.40
2023-02-28T16:25:36.836Z,5.40
2023-02-28T16:28:05.951Z,5.40
2023-02-28T16:30:35.680Z,5.30
2023-02-28T16:33:04.350Z,5.30
2023-02-28T16:35:32.631Z,5.30
2023-02-28T16:38:01.140Z,5.20
2023-02-28T16:40:30.653Z,5.20
2023-02-28T16:43:02.816Z,5.10
2023-02-28T16:45:31.576Z,5.10
2023-02-28T16:48:02.177Z,5.00
2023-02-28T16:50:33.636Z,4.90
2023-02-28T16:53:02.710Z,4.90
2023-02-28T16:55:31.662Z,4.80
2023-02-28T16:58:04.285Z,4.80
2023-02-28T17:00:34.411Z,4.80
2023-02-28T17:03:06.586Z,4.70
2023-02-28T17:05:40.666Z,4.60
2023-02-28T17:08:09.330Z,4.50
2023-02-28T17:10:38.061Z,4.40
2023-02-28T17:13:14.994Z,4.30
2023-02-28T17:15:46.174Z,4.10
2023-02-28T17:18:22.027Z,4.00
2023-02-28T17:20:51.134Z,4.00
2023-02-28T17:25:57.601Z,3.90
2023-02-28T17:28:26.569Z,3.70
2023-02-28T17:30:55.103Z,3.60
2023-02-28T17:33:25.381Z,3.60
2023-02-28T17:35:53.791Z,3.60
2023-02-28T17:38:23.936Z,3.50
2023-02-28T17:40:58.045Z,3.50
2023-02-28T17:43:27.814Z,3.40
2023-02-28T17:45:56.782Z,3.20
2023-02-28T17:48:26.619Z,3.10
2023-02-28T17:50:55.240Z,3.00
2023-02-28T17:53:24.582Z,2.90
2023-02-28T17:55:53.185Z,2.90
2023-02-28T17:58:21.563Z,2.90
2023-02-28T18:00:54.893Z,2.80
2023-02-28T18:03:25.353Z,2.70
2023-02-28T18:05:55.274Z,2.80
2023-02-28T18:08:23.660Z,2.70
2023-02-28T18:10:52.089Z,2.80
2023-02-28T18:13:20.613Z,2.80
2023-02-28T18:15:49.165Z,2.80
2023-02-28T18:18:17.997Z,2.70
2023-02-28T18:20:47.480Z,2.70
2023-02-28T18:23:20.686Z,2.60
2023-02-28T18:25:49.123Z,2.50
2023-02-28T18:28:17.529Z,2.50
2023-02-28T18:30:45.942Z,2.40
2023-02-28T18:33:14.291Z,2.40
2023-02-28T18:35:44.761Z,2.40
2023-02-28T18:38:16.093Z,2.30
2023-02-28T18:40:55.013Z,2.30
2023-02-28T18:43:23.486Z,2.20
2023-02-28T18:45:51.817Z,2.20
2023-02-28T18:48:20.594Z,2.20
2023-02-28T18:50:48.893Z,2.20
2023-02-28T18:53:17.881Z,2.10
2023-02-28T18:55:47.584Z,2.10
2023-02-28T18:58:16.006Z,2.00
2023-02-28T19:00:44.559Z,2.00
2023-02-28T19:03:14.036Z,1.90
2023-02-28T19:05:42.665Z,1.90
2023-02-28T19:08:11.626Z,1.90
2023-02-28T19:10:41.277Z,1.90
2023-02-28T19:13:11.029Z,1.80
2023-02-28T19:15:39.368Z,1.80
2023-02-28T19:18:09.288Z,1.70
2023-02-28T19:20:37.899Z,1.70
2023-02-28T19:23:06.846Z,1.70
2023-02-28T19:25:35.216Z,1.60
2023-02-28T19:28:05.288Z,1.50
2023-02-28T19:30:35.155Z,1.50
2023-02-28T19:33:04.199Z,1.40
2023-02-28T19:35:32.869Z,1.50
2023-02-28T19:38:01.525Z,1.40
2023-02-28T19:40:30.785Z,1.40
2023-02-28T19:43:00.948Z,1.40
2023-02-28T19:45:31.111Z,1.40
2023-02-28T19:48:00.999Z,1.40
2023-02-28T19:50:29.539Z,1.40
2023-02-28T19:52:59.957Z,1.40
2023-02-28T19:55:29.020Z,1.40
2023-02-28T19:57:57.426Z,1.20
2023-02-28T20:00:26.140Z,1.00
2023-02-28T20:02:54.582Z,0.90
2023-02-28T20:05:24.377Z,0.80
2023-02-28T20:07:53.384Z,0.60
2023-02-28T20:10:21.794Z,0.40
2023-02-28T20:12:50.178Z,0.30
2023-02-28T20:15:18.735Z,-0.10
2023-02-28T20:17:47.096Z,-0.40
2023-02-28T20:20:15.492Z,-0.50
2023-02-28T20:22:45.434Z,-0.50
2023-02-28T20:25:13.859Z,-0.40
2023-02-28T20:27:42.368Z,-0.30
2023-02-28T20:30:11.637Z,-0.20
2023-02-28T20:32:40.248Z,-0.30
2023-02-28T20:35:11.640Z,-0.40
2023-02-28T20:37:41.266Z,-0.40
2023-02-28T20:40:12.933Z,-0.40
2023-02-28T20:42:41.399Z,-0.50
2023-02-28T20:45:11.063Z,-0.80
2023-02-28T20:47:39.414Z,-0.90
2023-02-28T20:50:09.822Z,-1.10
2023-02-28T20:52:38.185Z,-1.20
2023-02-28T20:55:08.262Z,-1.40
2023-02-28T20:57:38.006Z,-1.50
2023-02-28T21:00:09.558Z,-1.70
2023-02-28T21:02:38.222Z,-1.90
2023-02-28T21:05:07.337Z,-1.90
2023-02-28T21:07:35.743Z,-1.60
2023-02-28T21:10:04.467Z,-1.60
2023-02-28T21:12:32.865Z,-1.60
2023-02-28T21:15:04.262Z,-1.50
2023-02-28T21:17:32.627Z,-1.40
2023-02-28T21:20:01.120Z,-1.50
2023-02-28T21:22:29.597Z,-1.60
2023-02-28T21:24:58.943Z,-1.80
2023-02-28T21:27:27.306Z,-1.70
2023-02-28T21:29:55.765Z,-1.70
2023-02-28T21:32:25.699Z,-1.60
2023-02-28T21:34:55.750Z,-1.60
2023-02-28T21:37:24.165Z,-1.40
2023-02-28T21:39:52.696Z,-1.30
2023-02-28T21:42:21.124Z,-1.40
2023-02-28T21:44:50.415Z,-1.30
2023-02-28T21:47:18.809Z,-1.20
2023-02-28T21:49:50.221Z,-1.20
2023-02-28T21:52:21.881Z,-1.30
2023-02-28T21:54:50.409Z,-1.20
2023-02-28T21:57:18.910Z,-1.10
2023-02-28T21:59:47.451Z,-1.10
2023-02-28T22:02:15.857Z,-1.00
2023-02-28T22:04:44.183Z,-0.90
2023-02-28T22:07:13.965Z,-0.80
2023-02-28T22:09:42.711Z,-0.70
2023-02-28T22:12:11.113Z,-0.60
2023-02-28T22:14:41.716Z,-0.70
2023-02-28T22:17:10.063Z,-0.80
2023-02-28T22:19:38.465Z,-0.90
2023-02-28T22:22:06.909Z,-0.90
2023-02-28T22:24:36.669Z,-0.80
2023-02-28T22:27:05.352Z,-0.90
2023-02-28T22:29:33.818Z,-1.10
2023-02-28T22:32:02.127Z,-1.20
2023-02-28T22:34:30.641Z,-1.30
2023-02-28T22:36:59.148Z,-1.40
2023-02-28T22:39:27.860Z,-1.40
2023-02-28T22:41:57.924Z,-1.30
2023-02-28T22:44:26.260Z,-1.20
2023-02-28T22:46:55.627Z,-1.10
2023-02-28T22:49:25.096Z,-0.90
2023-02-28T22:51:53.514Z,-0.90
2023-02-28T22:54:23.274Z,-0.70
2023-02-28T22:56:51.573Z,-0.70
2023-02-28T22:59:21.498Z,-0.80
2023-02-28T23:01:49.922Z,-0.90
2023-02-28T23:04:19.714Z,-0.80
2023-02-28T23:06:48.155Z,-0.80
2023-02-28T23:09:19.042Z,-1.00
2023-02-28T23:11:49.255Z,-1.20
2023-02-28T23:14:18.585Z,-1.20
2023-02-28T23:16:49.823Z,-1.00
2023-02-28T23:19:20.934Z,-0.90
2023-02-28T23:21:50.267Z,-0.70
2023-02-28T23:24:21.894Z,-0.70
2023-02-28T23:26:52.551Z,-0.60
2023-02-28T23:29:21.818Z,-0.50
2023-02-28T23:31:52.714Z,-0.50
2023-02-28T23:34:26.472Z,-0.30
2023-02-28T23:36:55.575Z,-0.30
2023-02-28T23:39:24.482Z,-0.20
2023-02-28T23:41:54.203Z,-0.20
2023-02-28T23:44:22.575Z,-0.40
2023-02-28T23:46:53.890Z,-0.70
2023-02-28T23:49:23.479Z,-0.80
2023-02-28T23:51:54.393Z,-0.90
2023-02-28T23:54:23.021Z,-0.90
2023-02-28T23:56:51.577Z,-0.60
2023-02-28T23:59:19.917Z,-0.40
